Stations météo

Publicité
Cambrai-Epinoy, France (7017): Température de l'air & dewpoint: 28.05.2020 01:00:00 - 03.06.2020 01:00:00 (CEST)Cambrai-Epinoy, France (7017): Vitesse du vent & gusts: 28.05.2020 01:00:00 - 03.06.2020 01:00:00 (CEST)Cambrai-Epinoy, France (7017): Direction du vent: 28.05.2020 01:00:00 - 03.06.2020 01:00:00 (CEST)Cambrai-Epinoy, France (7017): Quantités de précipitations: 28.05.2020 01:00:00 - 03.06.2020 01:00:00 (CEST)
Date & Time tt [°C] td [°C] ff [km/h] ff [knt] fx [km/h] fx [knt] dd rr [mm]
03.06.2020 01:00:00 - - - - - - - -
03.06.2020 00:00:00 - - - - - - - -
02.06.2020 23:00:00 - - - - - - - -
02.06.2020 22:00:00 - - - - - - - -
02.06.2020 21:00:00 - - - - - - - -
02.06.2020 20:00:00 - - - - - - - -
02.06.2020 19:00:00 - - - - - - - -
02.06.2020 18:00:00 - - - - - - - -
02.06.2020 17:00:00 - - - - - - - -
02.06.2020 16:00:00 - - - - - - - -
02.06.2020 15:00:00 - - - - - - - -
02.06.2020 14:00:00 - - - - - - - -
02.06.2020 13:00:00 - - - - - - - -
02.06.2020 12:00:00 - - - - - - - -
02.06.2020 11:00:00 - - - - - - - -
02.06.2020 10:00:00 - - - - - - - -
02.06.2020 09:00:00 - - - - - - - -
02.06.2020 08:00:00 - - - - - - - -
02.06.2020 07:00:00 - - - - - - - -
02.06.2020 06:00:00 12,6 9,4 7 4 13 7 NW 0,0
02.06.2020 05:00:00 14,6 7,9 8 5 16 9 N 0,0
02.06.2020 04:00:00 15,4 7,4 11 6 18 10 N 0,0
02.06.2020 03:00:00 16,0 7,7 11 6 18 10 N 0,0
02.06.2020 02:00:00 16,6 9,0 11 6 19 10 N 0,0
02.06.2020 01:00:00 17,7 9,1 13 7 20 11 N 0,0
02.06.2020 00:00:00 18,2 8,7 11 6 20 11 NNE 0,0
01.06.2020 23:00:00 - - - - - - - -
01.06.2020 22:00:00 - - - - - - - -
01.06.2020 21:00:00 - - - - - - - -
01.06.2020 20:00:00 - - - - - - - -
01.06.2020 19:00:00 - - - - - - - -
01.06.2020 18:00:00 - - - - - - - -
01.06.2020 17:00:00 - - - - - - - -
01.06.2020 16:00:00 - - - - - - - -
01.06.2020 15:00:00 - - - - - - - -
01.06.2020 14:00:00 - - - - - - - -
01.06.2020 13:00:00 - - - - - - - -
01.06.2020 12:00:00 - - - - - - - -
01.06.2020 11:00:00 - - - - - - - -
01.06.2020 10:00:00 - - - - - - - -
01.06.2020 09:00:00 - - - - - - - -
01.06.2020 08:00:00 14,5 7,8 13 7 19 10 ENE 0,0
01.06.2020 07:00:00 12,5 7,2 8 4 14 7 NE 0,0
01.06.2020 06:00:00 10,3 7,0 9 5 14 7 NE 0,0
01.06.2020 05:00:00 9,8 6,3 10 5 15 8 ENE 0,0
01.06.2020 04:00:00 10,4 6,5 10 5 17 9 E 0,0
01.06.2020 03:00:00 11,7 6,4 14 8 18 10 E 0,0
01.06.2020 02:00:00 12,5 5,9 11 6 16 9 ENE 0,0
01.06.2020 01:00:00 14,1 5,7 12 6 16 9 NE 0,0
01.06.2020 00:00:00 15,1 5,3 11 6 17 9 NE 0,0
31.05.2020 23:00:00 15,3 5,5 11 6 18 10 NE 0,0
31.05.2020 22:00:00 16,6 5,5 9 5 16 9 NE 0,0
31.05.2020 21:00:00 18,4 5,2 10 6 27 15 ENE 0,0
31.05.2020 20:00:00 21,3 3,5 21 12 36 19 E 0,0
31.05.2020 19:00:00 22,6 4,1 19 10 34 18 E 0,0
31.05.2020 18:00:00 22,8 5,2 19 11 39 21 ENE 0,0
31.05.2020 17:00:00 23,0 5,0 23 12 37 20 E 0,0
31.05.2020 16:00:00 22,9 4,9 21 11 74 40 ENE 0,0
31.05.2020 15:00:00 - - - - - - - -
31.05.2020 14:00:00 - - - - - - - -
31.05.2020 13:00:00 - - - - - - - -
31.05.2020 12:00:00 - - - - - - - -
31.05.2020 11:00:00 - - - - - - - -
31.05.2020 10:00:00 - - - - - - - -
31.05.2020 09:00:00 16,6 7,0 9 5 18 10 ENE 0,0
31.05.2020 08:00:00 14,3 7,3 11 6 21 12 ENE 0,0
31.05.2020 07:00:00 11,9 6,6 11 6 15 8 ENE 0,0
31.05.2020 06:00:00 9,7 6,0 11 6 14 7 ENE 0,0
31.05.2020 05:00:00 10,8 6,0 13 7 17 9 ENE 0,0
31.05.2020 04:00:00 11,3 5,6 13 7 17 9 ENE 0,0
31.05.2020 03:00:00 12,1 5,9 13 7 15 8 E 0,0
31.05.2020 02:00:00 13,6 6,0 13 7 18 10 ENE 0,0
31.05.2020 01:00:00 14,4 6,2 13 7 17 9 ENE 0,0
31.05.2020 00:00:00 14,7 6,8 11 6 16 9 E 0,0
30.05.2020 23:00:00 16,3 6,7 10 6 17 9 NE 0,0
30.05.2020 22:00:00 18,0 6,5 10 5 24 13 NE 0,0
30.05.2020 21:00:00 21,4 6,9 13 7 26 14 NE 0,0
30.05.2020 20:00:00 23,5 5,4 16 9 29 16 ENE 0,0
30.05.2020 19:00:00 24,4 3,6 18 10 31 17 NE 0,0
30.05.2020 18:00:00 24,9 4,6 14 8 35 19 NE 0,0
30.05.2020 17:00:00 24,7 3,9 16 8 31 17 ENE 0,0
30.05.2020 16:00:00 24,8 3,4 16 9 33 18 ENE 0,0
30.05.2020 15:00:00 - - - - - - - -
30.05.2020 14:00:00 - - - - - - - -
30.05.2020 13:00:00 - - - - - - - -
30.05.2020 12:00:00 - - - - - - - -
30.05.2020 11:00:00 - - - - - - - -
30.05.2020 10:00:00 18,6 8,0 5 3 15 8 ENE 0,0
30.05.2020 09:00:00 16,0 7,0 6 4 13 7 NE 0,0
30.05.2020 08:00:00 13,8 6,9 8 4 14 8 NE 0,0
30.05.2020 07:00:00 11,7 6,6 5 3 13 7 NNE 0,0
30.05.2020 06:00:00 9,6 6,3 8 4 13 7 NE 0,0
30.05.2020 05:00:00 10,4 6,3 10 5 16 9 NE 0,0
30.05.2020 04:00:00 11,5 7,0 11 6 18 10 NE 0,0
30.05.2020 03:00:00 12,5 7,4 9 5 14 8 NNE 0,0
30.05.2020 02:00:00 13,2 7,8 8 4 14 7 N 0,0
30.05.2020 01:00:00 13,9 7,6 9 5 19 10 N 0,0
30.05.2020 00:00:00 15,1 7,1 11 6 25 14 NNE 0,0
29.05.2020 23:00:00 16,5 5,7 14 8 22 12 N 0,0
29.05.2020 22:00:00 17,3 3,9 10 5 16 8 NE 0,0
29.05.2020 21:00:00 19,8 4,7 10 6 25 13 NE 0,0
29.05.2020 20:00:00 22,2 2,8 16 9 38 20 NE 0,0
29.05.2020 19:00:00 23,1 3,1 16 9 51 28 NE 0,0
29.05.2020 18:00:00 24,0 3,8 16 9 33 18 NE 0,0
29.05.2020 17:00:00 23,8 2,6 19 10 36 19 ENE 0,0
29.05.2020 16:00:00 23,8 3,1 16 9 40 21 NE 0,0
29.05.2020 15:00:00 - - - - - - - -
29.05.2020 14:00:00 - - - - - - - -
29.05.2020 13:00:00 21,4 5,3 16 9 33 18 ENE 0,0
29.05.2020 12:00:00 20,5 4,1 18 10 29 16 ENE 0,0
29.05.2020 11:00:00 19,1 6,2 14 7 23 12 ENE 0,0
29.05.2020 10:00:00 17,3 5,9 14 8 24 13 ENE 0,0
29.05.2020 09:00:00 15,1 5,6 15 8 24 13 ENE 0,0
29.05.2020 08:00:00 12,6 5,5 12 7 18 10 ENE 0,0
29.05.2020 07:00:00 10,2 4,8 13 7 19 11 NE 0,0
29.05.2020 06:00:00 8,5 4,9 10 5 15 8 NNE 0,0
29.05.2020 05:00:00 9,3 5,3 9 5 18 10 ENE 0,0
29.05.2020 04:00:00 10,5 5,9 10 6 22 12 NE 0,0
29.05.2020 03:00:00 11,7 6,2 14 7 23 12 NE 0,0
29.05.2020 02:00:00 12,9 5,8 17 9 26 14 NE 0,0
29.05.2020 01:00:00 12,8 4,0 10 5 18 10 NNE 0,0
29.05.2020 00:00:00 13,5 4,1 10 6 18 10 NE 0,0
28.05.2020 23:00:00 14,7 3,8 12 7 17 9 NE 0,0
28.05.2020 22:00:00 15,1 4,7 10 5 26 14 ENE 0,0
28.05.2020 21:00:00 19,4 3,9 16 9 29 16 NE 0,0
28.05.2020 20:00:00 21,2 3,8 21 12 39 21 NE 0,0
28.05.2020 19:00:00 22,2 4,7 19 10 37 20 ENE 0,0
28.05.2020 18:00:00 22,3 3,4 23 12 38 20 NNE 0,0
28.05.2020 17:00:00 22,9 3,9 19 11 38 20 NE 0,0
28.05.2020 16:00:00 22,4 3,5 22 12 42 23 NE 0,0
28.05.2020 15:00:00 21,7 2,9 26 14 43 23 NE 0,0
28.05.2020 14:00:00 21,1 3,3 24 13 42 23 NE 0,0
28.05.2020 13:00:00 20,4 5,2 26 14 41 22 NE 0,0
28.05.2020 12:00:00 18,7 6,8 25 13 39 21 NE 0,0
28.05.2020 11:00:00 17,0 6,5 23 12 36 19 NE 0,0
28.05.2020 10:00:00 15,4 6,4 20 11 32 17 NE 0,0
28.05.2020 09:00:00 13,3 6,2 21 12 34 18 NE 0,0
28.05.2020 08:00:00 12,0 7,1 19 10 32 17 NE 0,0
28.05.2020 07:00:00 10,5 8,9 13 7 22 12 NNE 0,0
28.05.2020 06:00:00 9,7 9,1 12 7 20 11 N 0,0
28.05.2020 05:00:00 9,8 9,0 14 8 21 11 N 0,0
28.05.2020 04:00:00 9,8 8,9 9 5 18 10 N 0,0
28.05.2020 03:00:00 10,3 8,2 11 6 26 14 N 0,0
28.05.2020 02:00:00 11,1 6,6 10 5 23 13 N 0,0
28.05.2020 01:00:00 13,1 5,7 15 8 27 15 N 0,0

tt = Température de l'air
td = dewpoint
ff = Vitesse du vent
fx = gusts
dd = Direction du vent
rr = Quantités de précipitations

stations d'obs. à proximité